Parma, Idaho
Current Conditions -  °F | °C
As of 5:53 PM on Sunday 23 Nov 2014 (Local Time) from KONO Reporting Station
Few Clouds Few Clouds  
Wind Chill: 35°   Ceiling: Unl
Heat Index: 35°   Visibility: 10mi
Dew Point: 30°   Wind: 3mph
Humidity: 82%   Direction: 330°NNW
Pressure: 30.24"   Gusts: NA
Location:  43.79°N, 116.94°W
Report Text: KONO 240053Z AUTO 33003KT 10SM FEW120 02/M01 A3024 RMK AO2 SLP264 T00171011
Loading
Personal Weather Stations






























Interactive Weather Map New forecast layout! Learn more

10-Day Weather Forecast

Advertisements
Track Severe Weather on mobile